<?xml version='1.0' encoding='UTF-8'?><gpx version="1.1" creator="JPX - https://github.com/jenetics/jpx" xmlns="http://www.topografix.com/GPX/1/1"><trk><trkseg><trkpt lat="44.0263601" lon="7.9073302"><ele>368.0</ele><time>2026-03-23T14:21:01.363Z</time></trkpt><trkpt lat="44.0262923" lon="7.9074475"><ele>368.0</ele><time>2026-03-23T14:21:02.436Z</time></trkpt><trkpt lat="44.0262146" lon="7.9076228"><ele>368.0</ele><time>2026-03-23T14:21:03.428Z</time></trkpt><trkpt lat="44.0261666" lon="7.9077504"><ele>368.0</ele><time>2026-03-23T14:21:04.428Z</time></trkpt><trkpt lat="44.0261371" lon="7.9078638"><ele>368.0</ele><time>2026-03-23T14:21:05.428Z</time></trkpt><trkpt lat="44.0261327" lon="7.9079684"><ele>368.1666666666667</ele><time>2026-03-23T14:21:06.429Z</time></trkpt><trkpt lat="44.0261256" lon="7.9080773"><ele>368.33333333333337</ele><time>2026-03-23T14:21:07.432Z</time></trkpt><trkpt lat="44.0261105" lon="7.9081918"><ele>368.5</ele><time>2026-03-23T14:21:08.429Z</time></trkpt><trkpt lat="44.0260946" lon="7.9083131"><ele>368.6666666666667</ele><time>2026-03-23T14:21:09.429Z</time></trkpt><trkpt lat="44.0260797" lon="7.9084336"><ele>368.8333333333333</ele><time>2026-03-23T14:21:10.428Z</time></trkpt><trkpt lat="44.0260862" lon="7.9085509"><ele>369.0</ele><time>2026-03-23T14:21:11.428Z</time></trkpt><trkpt lat="44.0261043" lon="7.9086656"><ele>368.4</ele><time>2026-03-23T14:21:12.428Z</time></trkpt><trkpt lat="44.0261309" lon="7.90879"><ele>367.79999999999995</ele><time>2026-03-23T14:21:13.428Z</time></trkpt><trkpt lat="44.0261654" lon="7.9089134"><ele>367.20000000000005</ele><time>2026-03-23T14:21:14.429Z</time></trkpt><trkpt lat="44.0262014" lon="7.9090261"><ele>366.6</ele><time>2026-03-23T14:21:15.429Z</time></trkpt><trkpt lat="44.0262459" lon="7.9091122"><ele>366.0</ele><time>2026-03-23T14:21:16.429Z</time></trkpt><trkpt lat="44.0262951" lon="7.9092312"><ele>366.0</ele><time>2026-03-23T14:21:18.428Z</time></trkpt><trkpt lat="44.0262894" lon="7.9093332"><ele>366.0</ele><time>2026-03-23T14:21:20.429Z</time></trkpt><trkpt lat="44.0262688" lon="7.9094523"><ele>366.0</ele><time>2026-03-23T14:21:22.428Z</time></trkpt><trkpt lat="44.0262533" lon="7.9095925"><ele>366.0</ele><time>2026-03-23T14:21:24.428Z</time></trkpt><trkpt lat="44.0262487" lon="7.9097184"><ele>366.0</ele><time>2026-03-23T14:21:26.429Z</time></trkpt><trkpt lat="44.0262712" lon="7.9098444"><ele>366.0</ele><time>2026-03-23T14:21:28.428Z</time></trkpt><trkpt lat="44.0263147" lon="7.909968"><ele>366.3333333333333</ele><time>2026-03-23T14:21:30.428Z</time></trkpt><trkpt lat="44.0263488" lon="7.9100785"><ele>366.6666666666667</ele><time>2026-03-23T14:21:32.429Z</time></trkpt><trkpt lat="44.0263517" lon="7.9101899"><ele>367.0</ele><time>2026-03-23T14:21:34.428Z</time></trkpt><trkpt lat="44.0263279" lon="7.9102869"><ele>367.33333333333337</ele><time>2026-03-23T14:21:36.428Z</time></trkpt><trkpt lat="44.0262554" lon="7.9103507"><ele>367.6666666666667</ele><time>2026-03-23T14:21:38.429Z</time></trkpt><trkpt lat="44.0262061" lon="7.9104214"><ele>368.0</ele><time>2026-03-23T14:21:40.429Z</time></trkpt><trkpt lat="44.0261915" lon="7.9105516"><ele>368.0</ele><time>2026-03-23T14:21:43.428Z</time></trkpt><trkpt lat="44.0262157" lon="7.9106521"><ele>368.0</ele><time>2026-03-23T14:21:45.428Z</time></trkpt><trkpt lat="44.0262651" lon="7.9107565"><ele>368.0</ele><time>2026-03-23T14:21:47.429Z</time></trkpt><trkpt lat="44.0263045" lon="7.910882"><ele>368.0</ele><time>2026-03-23T14:21:49.429Z</time></trkpt><trkpt lat="44.0263393" lon="7.9109923"><ele>368.0</ele><time>2026-03-23T14:21:51.428Z</time></trkpt><trkpt lat="44.0263607" lon="7.9110924"><ele>368.0</ele><time>2026-03-23T14:21:53.428Z</time></trkpt><trkpt lat="44.0263767" lon="7.9111953"><ele>368.5</ele><time>2026-03-23T14:21:55.428Z</time></trkpt><trkpt lat="44.0263941" lon="7.9112831"><ele>369.0</ele><time>2026-03-23T14:21:57.428Z</time></trkpt><trkpt lat="44.0264021" lon="7.9113736"><ele>369.5</ele><time>2026-03-23T14:21:59.428Z</time></trkpt><trkpt lat="44.0264068" lon="7.9114833"><ele>370.0</ele><time>2026-03-23T14:22:01.431Z</time></trkpt><trkpt lat="44.0264038" lon="7.9115956"><ele>370.5</ele><time>2026-03-23T14:22:03.428Z</time></trkpt><trkpt lat="44.026412" lon="7.9117517"><ele>371.0</ele><time>2026-03-23T14:22:05.428Z</time></trkpt><trkpt lat="44.0264153" lon="7.9118417"><ele>371.1666666666667</ele><time>2026-03-23T14:22:06.427Z</time></trkpt><trkpt lat="44.0264036" lon="7.9119865"><ele>371.33333333333337</ele><time>2026-03-23T14:22:08.431Z</time></trkpt><trkpt lat="44.0264067" lon="7.9121167"><ele>371.5</ele><time>2026-03-23T14:22:10.429Z</time></trkpt><trkpt lat="44.0263701" lon="7.9122356"><ele>371.6666666666667</ele><time>2026-03-23T14:22:12.428Z</time></trkpt><trkpt lat="44.0263262" lon="7.912347"><ele>371.8333333333333</ele><time>2026-03-23T14:22:14.428Z</time></trkpt><trkpt lat="44.0263091" lon="7.9124336"><ele>372.0</ele><time>2026-03-23T14:22:16.428Z</time></trkpt><trkpt lat="44.0263018" lon="7.9125493"><ele>369.1666666666667</ele><time>2026-03-23T14:22:19.429Z</time></trkpt><trkpt lat="44.0263637" lon="7.9126097"><ele>366.3333333333333</ele><time>2026-03-23T14:22:22.428Z</time></trkpt><trkpt lat="44.0264393" lon="7.912617"><ele>363.5</ele><time>2026-03-23T14:22:26.429Z</time></trkpt><trkpt lat="44.0265116" lon="7.9126574"><ele>360.66666666666663</ele><time>2026-03-23T14:22:50.428Z</time></trkpt><trkpt lat="44.0265692" lon="7.9127"><ele>357.8333333333333</ele><time>2026-03-23T14:22:52.429Z</time></trkpt><trkpt lat="44.0266334" lon="7.9127729"><ele>355.0</ele><time>2026-03-23T14:22:54.429Z</time></trkpt><trkpt lat="44.0266915" lon="7.9128712"><ele>355.0</ele><time>2026-03-23T14:22:56.428Z</time></trkpt><trkpt lat="44.0267356" lon="7.9129743"><ele>355.0</ele><time>2026-03-23T14:22:58.428Z</time></trkpt><trkpt lat="44.0267977" lon="7.9130961"><ele>355.0</ele><time>2026-03-23T14:23:00.429Z</time></trkpt><trkpt lat="44.026851" lon="7.9131925"><ele>355.0</ele><time>2026-03-23T14:23:02.429Z</time></trkpt><trkpt lat="44.026893" lon="7.9132918"><ele>355.0</ele><time>2026-03-23T14:23:04.428Z</time></trkpt><trkpt lat="44.0269307" lon="7.9133972"><ele>355.0</ele><time>2026-03-23T14:23:06.428Z</time></trkpt><trkpt lat="44.0269759" lon="7.9134843"><ele>359.8333333333333</ele><time>2026-03-23T14:23:08.43Z</time></trkpt><trkpt lat="44.0270263" lon="7.9135617"><ele>364.66666666666663</ele><time>2026-03-23T14:23:10.428Z</time></trkpt><trkpt lat="44.0270938" lon="7.9136266"><ele>369.5</ele><time>2026-03-23T14:23:12.428Z</time></trkpt><trkpt lat="44.0271562" lon="7.9137301"><ele>374.3333333333333</ele><time>2026-03-23T14:23:14.429Z</time></trkpt><trkpt lat="44.027212" lon="7.9138221"><ele>379.1666666666667</ele><time>2026-03-23T14:23:16.428Z</time></trkpt><trkpt lat="44.0272724" lon="7.9138965"><ele>384.0</ele><time>2026-03-23T14:23:18.429Z</time></trkpt><trkpt lat="44.0273315" lon="7.9139841"><ele>384.0</ele><time>2026-03-23T14:23:20.429Z</time></trkpt><trkpt lat="44.0273884" lon="7.914085"><ele>384.0</ele><time>2026-03-23T14:23:22.428Z</time></trkpt><trkpt lat="44.027431" lon="7.9141722"><ele>384.0</ele><time>2026-03-23T14:23:24.428Z</time></trkpt><trkpt lat="44.027478" lon="7.9142542"><ele>384.0</ele><time>2026-03-23T14:23:26.429Z</time></trkpt><trkpt lat="44.0275113" lon="7.9143317"><ele>384.0</ele><time>2026-03-23T14:23:28.428Z</time></trkpt><trkpt lat="44.0275427" lon="7.9144427"><ele>384.0</ele><time>2026-03-23T14:23:31.429Z</time></trkpt><trkpt lat="44.0275799" lon="7.9145274"><ele>374.0</ele><time>2026-03-23T14:23:33.428Z</time></trkpt><trkpt lat="44.027615" lon="7.9146293"><ele>364.0</ele><time>2026-03-23T14:23:35.429Z</time></trkpt><trkpt lat="44.0276278" lon="7.9147342"><ele>354.0</ele><time>2026-03-23T14:23:37.43Z</time></trkpt><trkpt lat="44.0276385" lon="7.9148406"><ele>344.0</ele><time>2026-03-23T14:23:39.427Z</time></trkpt><trkpt lat="44.0276553" lon="7.9149568"><ele>334.0</ele><time>2026-03-23T14:23:42.428Z</time></trkpt><trkpt lat="44.0276753" lon="7.9150836"><ele>324.0</ele><time>2026-03-23T14:23:45.428Z</time></trkpt><trkpt lat="44.0276776" lon="7.9151868"><ele>322.6666666666667</ele><time>2026-03-23T14:23:47.43Z</time></trkpt><trkpt lat="44.0276765" lon="7.9153046"><ele>321.3333333333333</ele><time>2026-03-23T14:23:49.429Z</time></trkpt><trkpt lat="44.0276754" lon="7.9154233"><ele>320.0</ele><time>2026-03-23T14:23:52.429Z</time></trkpt><trkpt lat="44.027667" lon="7.915524"><ele>318.66666666666663</ele><time>2026-03-23T14:23:55.429Z</time></trkpt><trkpt lat="44.0276739" lon="7.9156359"><ele>317.3333333333333</ele><time>2026-03-23T14:23:58.429Z</time></trkpt><trkpt lat="44.0276618" lon="7.915754"><ele>316.0</ele><time>2026-03-23T14:24:01.431Z</time></trkpt><trkpt lat="44.0276626" lon="7.9158827"><ele>314.3333333333333</ele><time>2026-03-23T14:24:04.429Z</time></trkpt><trkpt lat="44.0276862" lon="7.9159979"><ele>312.66666666666663</ele><time>2026-03-23T14:24:07.43Z</time></trkpt><trkpt lat="44.0277037" lon="7.9161113"><ele>311.0</ele><time>2026-03-23T14:24:10.429Z</time></trkpt><trkpt lat="44.0277176" lon="7.9162142"><ele>309.3333333333333</ele><time>2026-03-23T14:24:13.429Z</time></trkpt><trkpt lat="44.0277587" lon="7.9163184"><ele>307.6666666666667</ele><time>2026-03-23T14:24:16.429Z</time></trkpt><trkpt lat="44.0277604" lon="7.9164426"><ele>306.0</ele><time>2026-03-23T14:24:19.429Z</time></trkpt><trkpt lat="44.0277528" lon="7.9165411"><ele>306.0</ele><time>2026-03-23T14:24:21.428Z</time></trkpt><trkpt lat="44.02776" lon="7.9166455"><ele>306.0</ele><time>2026-03-23T14:24:23.429Z</time></trkpt><trkpt lat="44.0277618" lon="7.9167533"><ele>315.0</ele><time>2026-03-23T14:24:25.428Z</time></trkpt><trkpt lat="44.027758" lon="7.916849"><ele>315.0</ele><time>2026-03-23T14:24:27.428Z</time></trkpt><trkpt lat="44.027766" lon="7.9169546"><ele>315.0</ele><time>2026-03-23T14:24:30.432Z</time></trkpt></trkseg></trk></gpx>